sensor_id;sensor_type;location;lat;lon;timestamp;P1;durP1;ratioP1;P2;durP2;ratioP2
39788;SDS011;25478;42.626;23.320;2022-09-09T00:01:12;15.48;;;10.00;;
39788;SDS011;25478;42.626;23.320;2022-09-09T00:04:03;13.37;;;10.23;;
39788;SDS011;25478;42.626;23.320;2022-09-09T00:09:26;14.00;;;10.43;;
39788;SDS011;25478;42.626;23.320;2022-09-09T00:17:14;16.85;;;11.68;;
39788;SDS011;25478;42.626;23.320;2022-09-09T00:23:20;14.73;;;10.65;;
39788;SDS011;25478;42.626;23.320;2022-09-09T00:26:02;15.90;;;11.55;;
39788;SDS011;25478;42.626;23.320;2022-09-09T00:28:48;16.35;;;11.52;;
39788;SDS011;25478;42.626;23.320;2022-09-09T00:31:20;15.63;;;10.73;;
39788;SDS011;25478;42.626;23.320;2022-09-09T00:33:51;16.27;;;11.15;;
39788;SDS011;25478;42.626;23.320;2022-09-09T00:36:18;14.80;;;11.77;;
39788;SDS011;25478;42.626;23.320;2022-09-09T00:38:57;16.88;;;11.70;;
39788;SDS011;25478;42.626;23.320;2022-09-09T00:44:13;16.08;;;11.65;;
39788;SDS011;25478;42.626;23.320;2022-09-09T00:47:01;16.77;;;11.50;;
39788;SDS011;25478;42.626;23.320;2022-09-09T00:52:40;15.57;;;12.02;;
39788;SDS011;25478;42.626;23.320;2022-09-09T00:57:59;14.40;;;11.63;;
39788;SDS011;25478;42.626;23.320;2022-09-09T01:00:29;15.93;;;12.35;;
39788;SDS011;25478;42.626;23.320;2022-09-09T01:06:25;15.52;;;12.07;;
39788;SDS011;25478;42.626;23.320;2022-09-09T01:09:00;14.45;;;12.05;;
39788;SDS011;25478;42.626;23.320;2022-09-09T01:11:48;16.67;;;12.52;;
39788;SDS011;25478;42.626;23.320;2022-09-09T01:20:13;16.15;;;12.35;;
39788;SDS011;25478;42.626;23.320;2022-09-09T01:28:30;17.77;;;13.05;;
39788;SDS011;25478;42.626;23.320;2022-09-09T01:31:05;17.50;;;13.03;;
39788;SDS011;25478;42.626;23.320;2022-09-09T01:33:40;16.75;;;13.35;;
39788;SDS011;25478;42.626;23.320;2022-09-09T01:36:07;14.88;;;12.23;;
39788;SDS011;25478;42.626;23.320;2022-09-09T01:38:41;16.52;;;12.93;;
39788;SDS011;25478;42.626;23.320;2022-09-09T01:41:07;16.15;;;12.80;;
39788;SDS011;25478;42.626;23.320;2022-09-09T01:43:41;17.20;;;12.90;;
39788;SDS011;25478;42.626;23.320;2022-09-09T01:46:07;17.38;;;13.23;;
39788;SDS011;25478;42.626;23.320;2022-09-09T01:48:35;17.02;;;12.65;;
39788;SDS011;25478;42.626;23.320;2022-09-09T01:51:03;16.08;;;12.45;;
39788;SDS011;25478;42.626;23.320;2022-09-09T01:53:29;15.07;;;12.07;;
39788;SDS011;25478;42.626;23.320;2022-09-09T01:56:01;18.58;;;13.40;;
39788;SDS011;25478;42.626;23.320;2022-09-09T01:59:10;17.20;;;13.02;;
39788;SDS011;25478;42.626;23.320;2022-09-09T02:07:14;17.45;;;12.98;;
39788;SDS011;25478;42.626;23.320;2022-09-09T02:09:52;14.17;;;11.67;;
39788;SDS011;25478;42.626;23.320;2022-09-09T02:12:25;18.95;;;12.18;;
39788;SDS011;25478;42.626;23.320;2022-09-09T02:14:59;15.90;;;12.20;;
39788;SDS011;25478;42.626;23.320;2022-09-09T02:17:36;16.80;;;11.70;;
39788;SDS011;25478;42.626;23.320;2022-09-09T02:20:10;15.75;;;12.55;;
39788;SDS011;25478;42.626;23.320;2022-09-09T02:22:44;14.87;;;11.70;;
39788;SDS011;25478;42.626;23.320;2022-09-09T02:25:17;18.42;;;13.63;;
39788;SDS011;25478;42.626;23.320;2022-09-09T02:27:49;15.27;;;12.23;;
39788;SDS011;25478;42.626;23.320;2022-09-09T02:30:16;18.40;;;12.40;;
39788;SDS011;25478;42.626;23.320;2022-09-09T02:32:49;17.02;;;12.65;;
39788;SDS011;25478;42.626;23.320;2022-09-09T02:35:19;16.33;;;12.93;;
39788;SDS011;25478;42.626;23.320;2022-09-09T02:37:47;18.30;;;12.43;;
39788;SDS011;25478;42.626;23.320;2022-09-09T02:40:16;15.07;;;12.27;;
39788;SDS011;25478;42.626;23.320;2022-09-09T02:42:46;16.83;;;12.27;;
39788;SDS011;25478;42.626;23.320;2022-09-09T02:45:14;16.43;;;12.73;;
39788;SDS011;25478;42.626;23.320;2022-09-09T02:48:00;16.47;;;12.50;;
39788;SDS011;25478;42.626;23.320;2022-09-09T02:50:35;19.23;;;13.13;;
39788;SDS011;25478;42.626;23.320;2022-09-09T02:53:24;17.63;;;13.30;;
39788;SDS011;25478;42.626;23.320;2022-09-09T02:56:01;18.70;;;13.53;;
39788;SDS011;25478;42.626;23.320;2022-09-09T02:58:31;20.67;;;14.00;;
39788;SDS011;25478;42.626;23.320;2022-09-09T03:01:01;17.27;;;13.73;;
39788;SDS011;25478;42.626;23.320;2022-09-09T03:03:29;19.93;;;13.80;;
39788;SDS011;25478;42.626;23.320;2022-09-09T03:05:56;20.10;;;14.00;;
39788;SDS011;25478;42.626;23.320;2022-09-09T03:08:22;19.03;;;13.50;;
39788;SDS011;25478;42.626;23.320;2022-09-09T03:10:48;17.93;;;13.93;;
39788;SDS011;25478;42.626;23.320;2022-09-09T03:13:14;19.73;;;14.10;;
39788;SDS011;25478;42.626;23.320;2022-09-09T03:15:41;18.57;;;13.20;;
39788;SDS011;25478;42.626;23.320;2022-09-09T03:18:11;17.87;;;13.97;;
39788;SDS011;25478;42.626;23.320;2022-09-09T03:20:36;18.00;;;13.53;;
39788;SDS011;25478;42.626;23.320;2022-09-09T03:23:02;18.77;;;13.93;;
39788;SDS011;25478;42.626;23.320;2022-09-09T03:25:28;18.43;;;14.50;;
39788;SDS011;25478;42.626;23.320;2022-09-09T03:27:54;18.63;;;14.57;;
39788;SDS011;25478;42.626;23.320;2022-09-09T03:30:22;18.23;;;14.60;;
39788;SDS011;25478;42.626;23.320;2022-09-09T03:32:49;18.43;;;13.57;;
39788;SDS011;25478;42.626;23.320;2022-09-09T03:35:15;18.47;;;15.00;;
39788;SDS011;25478;42.626;23.320;2022-09-09T03:37:41;17.60;;;13.33;;
39788;SDS011;25478;42.626;23.320;2022-09-09T03:40:08;17.07;;;12.77;;
39788;SDS011;25478;42.626;23.320;2022-09-09T03:42:36;20.60;;;13.50;;
39788;SDS011;25478;42.626;23.320;2022-09-09T03:45:03;17.90;;;14.40;;
39788;SDS011;25478;42.626;23.320;2022-09-09T03:47:30;17.37;;;13.47;;
39788;SDS011;25478;42.626;23.320;2022-09-09T03:50:03;17.57;;;12.93;;
39788;SDS011;25478;42.626;23.320;2022-09-09T03:52:31;18.27;;;13.70;;
39788;SDS011;25478;42.626;23.320;2022-09-09T03:54:59;18.23;;;13.77;;
39788;SDS011;25478;42.626;23.320;2022-09-09T03:57:24;20.13;;;13.77;;
39788;SDS011;25478;42.626;23.320;2022-09-09T03:59:50;19.53;;;14.07;;
39788;SDS011;25478;42.626;23.320;2022-09-09T04:02:15;18.50;;;14.23;;
39788;SDS011;25478;42.626;23.320;2022-09-09T04:04:41;18.27;;;13.47;;
39788;SDS011;25478;42.626;23.320;2022-09-09T04:07:06;18.13;;;13.83;;
39788;SDS011;25478;42.626;23.320;2022-09-09T04:09:32;16.33;;;12.93;;
39788;SDS011;25478;42.626;23.320;2022-09-09T04:11:58;19.40;;;13.40;;
39788;SDS011;25478;42.626;23.320;2022-09-09T04:14:24;20.13;;;13.67;;
39788;SDS011;25478;42.626;23.320;2022-09-09T04:16:53;18.53;;;13.50;;
39788;SDS011;25478;42.626;23.320;2022-09-09T04:19:20;21.20;;;13.53;;
39788;SDS011;25478;42.626;23.320;2022-09-09T04:21:46;19.53;;;13.93;;
39788;SDS011;25478;42.626;23.320;2022-09-09T04:24:15;18.20;;;14.53;;
39788;SDS011;25478;42.626;23.320;2022-09-09T04:26:41;18.47;;;13.63;;
39788;SDS011;25478;42.626;23.320;2022-09-09T04:29:07;20.90;;;13.87;;
39788;SDS011;25478;42.626;23.320;2022-09-09T04:31:33;18.67;;;13.70;;
39788;SDS011;25478;42.626;23.320;2022-09-09T04:34:00;20.20;;;14.57;;
39788;SDS011;25478;42.626;23.320;2022-09-09T04:36:31;19.17;;;13.73;;
39788;SDS011;25478;42.626;23.320;2022-09-09T04:39:00;18.23;;;13.40;;
39788;SDS011;25478;42.626;23.320;2022-09-09T04:41:26;18.67;;;14.47;;
39788;SDS011;25478;42.626;23.320;2022-09-09T04:43:53;20.95;;;15.70;;
39788;SDS011;25478;42.626;23.320;2022-09-09T04:46:20;20.00;;;15.13;;
39788;SDS011;25478;42.626;23.320;2022-09-09T04:48:48;20.07;;;15.67;;
39788;SDS011;25478;42.626;23.320;2022-09-09T04:51:15;19.25;;;14.40;;
39788;SDS011;25478;42.626;23.320;2022-09-09T04:53:42;21.60;;;16.10;;
39788;SDS011;25478;42.626;23.320;2022-09-09T04:56:11;21.50;;;15.88;;
39788;SDS011;25478;42.626;23.320;2022-09-09T04:58:46;19.40;;;14.73;;
39788;SDS011;25478;42.626;23.320;2022-09-09T05:01:17;20.55;;;15.70;;
39788;SDS011;25478;42.626;23.320;2022-09-09T05:03:46;17.70;;;14.30;;
39788;SDS011;25478;42.626;23.320;2022-09-09T05:06:17;18.10;;;14.45;;
39788;SDS011;25478;42.626;23.320;2022-09-09T05:08:46;16.75;;;14.82;;
39788;SDS011;25478;42.626;23.320;2022-09-09T05:13:47;16.92;;;14.32;;
39788;SDS011;25478;42.626;23.320;2022-09-09T05:16:16;18.70;;;14.45;;
39788;SDS011;25478;42.626;23.320;2022-09-09T05:18:43;16.98;;;14.48;;
39788;SDS011;25478;42.626;23.320;2022-09-09T05:21:13;15.18;;;12.98;;
39788;SDS011;25478;42.626;23.320;2022-09-09T05:23:40;22.63;;;13.43;;
39788;SDS011;25478;42.626;23.320;2022-09-09T05:26:06;20.75;;;15.05;;
39788;SDS011;25478;42.626;23.320;2022-09-09T05:28:34;17.63;;;14.38;;
39788;SDS011;25478;42.626;23.320;2022-09-09T05:31:02;18.63;;;14.73;;
39788;SDS011;25478;42.626;23.320;2022-09-09T05:33:31;18.17;;;14.23;;
39788;SDS011;25478;42.626;23.320;2022-09-09T05:35:59;18.15;;;14.52;;
39788;SDS011;25478;42.626;23.320;2022-09-09T05:38:27;19.83;;;15.50;;
39788;SDS011;25478;42.626;23.320;2022-09-09T05:40:53;21.80;;;14.70;;
39788;SDS011;25478;42.626;23.320;2022-09-09T05:43:19;19.80;;;15.52;;
39788;SDS011;25478;42.626;23.320;2022-09-09T05:45:46;19.48;;;16.10;;
39788;SDS011;25478;42.626;23.320;2022-09-09T05:48:13;20.17;;;16.15;;
39788;SDS011;25478;42.626;23.320;2022-09-09T05:50:43;21.30;;;15.23;;
39788;SDS011;25478;42.626;23.320;2022-09-09T05:53:17;21.52;;;15.15;;
39788;SDS011;25478;42.626;23.320;2022-09-09T05:55:43;20.33;;;14.48;;
39788;SDS011;25478;42.626;23.320;2022-09-09T05:58:10;22.95;;;15.63;;
39788;SDS011;25478;42.626;23.320;2022-09-09T06:00:36;19.67;;;14.82;;
39788;SDS011;25478;42.626;23.320;2022-09-09T06:03:03;22.23;;;15.25;;
39788;SDS011;25478;42.626;23.320;2022-09-09T06:05:29;19.08;;;14.27;;
39788;SDS011;25478;42.626;23.320;2022-09-09T06:07:55;22.23;;;14.30;;
39788;SDS011;25478;42.626;23.320;2022-09-09T06:10:22;20.48;;;14.00;;
39788;SDS011;25478;42.626;23.320;2022-09-09T06:12:48;19.00;;;13.23;;
39788;SDS011;25478;42.626;23.320;2022-09-09T06:15:13;18.13;;;12.63;;
39788;SDS011;25478;42.626;23.320;2022-09-09T06:17:39;16.55;;;12.25;;
39788;SDS011;25478;42.626;23.320;2022-09-09T06:20:06;15.18;;;11.35;;
39788;SDS011;25478;42.626;23.320;2022-09-09T06:22:34;26.77;;;11.55;;
39788;SDS011;25478;42.626;23.320;2022-09-09T06:25:00;15.82;;;10.88;;
39788;SDS011;25478;42.626;23.320;2022-09-09T06:27:27;23.30;;;12.10;;
39788;SDS011;25478;42.626;23.320;2022-09-09T06:29:53;17.08;;;11.57;;
39788;SDS011;25478;42.626;23.320;2022-09-09T06:32:19;20.83;;;12.20;;
39788;SDS011;25478;42.626;23.320;2022-09-09T06:34:45;17.40;;;11.40;;
39788;SDS011;25478;42.626;23.320;2022-09-09T06:37:12;13.88;;;10.30;;
39788;SDS011;25478;42.626;23.320;2022-09-09T06:39:44;17.23;;;11.52;;
39788;SDS011;25478;42.626;23.320;2022-09-09T06:42:09;14.27;;;10.23;;
39788;SDS011;25478;42.626;23.320;2022-09-09T06:44:53;14.82;;;9.25;;
39788;SDS011;25478;42.626;23.320;2022-09-09T06:47:35;14.40;;;10.05;;
39788;SDS011;25478;42.626;23.320;2022-09-09T06:50:02;12.00;;;9.23;;
39788;SDS011;25478;42.626;23.320;2022-09-09T06:52:30;16.88;;;10.60;;
39788;SDS011;25478;42.626;23.320;2022-09-09T06:54:58;14.63;;;9.45;;
39788;SDS011;25478;42.626;23.320;2022-09-09T06:57:24;13.40;;;9.82;;
39788;SDS011;25478;42.626;23.320;2022-09-09T06:59:50;16.05;;;10.38;;
39788;SDS011;25478;42.626;23.320;2022-09-09T07:02:16;15.82;;;10.82;;
39788;SDS011;25478;42.626;23.320;2022-09-09T07:04:41;17.13;;;10.68;;
39788;SDS011;25478;42.626;23.320;2022-09-09T07:07:08;14.32;;;10.27;;
39788;SDS011;25478;42.626;23.320;2022-09-09T07:09:35;17.73;;;11.00;;
39788;SDS011;25478;42.626;23.320;2022-09-09T07:12:01;15.63;;;10.57;;
39788;SDS011;25478;42.626;23.320;2022-09-09T07:14:30;12.38;;;9.43;;
39788;SDS011;25478;42.626;23.320;2022-09-09T07:16:59;15.55;;;9.45;;
39788;SDS011;25478;42.626;23.320;2022-09-09T07:19:28;16.13;;;10.38;;
39788;SDS011;25478;42.626;23.320;2022-09-09T07:21:55;15.32;;;9.38;;
39788;SDS011;25478;42.626;23.320;2022-09-09T07:24:22;14.52;;;10.30;;
39788;SDS011;25478;42.626;23.320;2022-09-09T07:26:49;13.38;;;9.48;;
39788;SDS011;25478;42.626;23.320;2022-09-09T07:29:15;12.25;;;9.20;;
39788;SDS011;25478;42.626;23.320;2022-09-09T07:31:41;14.50;;;9.35;;
39788;SDS011;25478;42.626;23.320;2022-09-09T07:34:12;20.05;;;9.30;;
39788;SDS011;25478;42.626;23.320;2022-09-09T07:36:39;15.35;;;9.50;;
39788;SDS011;25478;42.626;23.320;2022-09-09T07:39:11;12.77;;;9.38;;
39788;SDS011;25478;42.626;23.320;2022-09-09T07:41:47;16.48;;;10.18;;
39788;SDS011;25478;42.626;23.320;2022-09-09T07:44:17;13.93;;;9.18;;
39788;SDS011;25478;42.626;23.320;2022-09-09T07:46:49;16.75;;;9.38;;
39788;SDS011;25478;42.626;23.320;2022-09-09T07:49:19;13.15;;;9.65;;
39788;SDS011;25478;42.626;23.320;2022-09-09T07:51:45;14.23;;;9.70;;
39788;SDS011;25478;42.626;23.320;2022-09-09T07:54:14;11.93;;;9.27;;
39788;SDS011;25478;42.626;23.320;2022-09-09T07:56:44;16.90;;;9.68;;
39788;SDS011;25478;42.626;23.320;2022-09-09T07:59:10;11.70;;;8.48;;
39788;SDS011;25478;42.626;23.320;2022-09-09T08:01:40;14.38;;;9.30;;
39788;SDS011;25478;42.626;23.320;2022-09-09T08:04:27;12.85;;;8.30;;
39788;SDS011;25478;42.626;23.320;2022-09-09T08:06:54;14.55;;;8.65;;
39788;SDS011;25478;42.626;23.320;2022-09-09T08:09:23;17.10;;;9.02;;
39788;SDS011;25478;42.626;23.320;2022-09-09T08:11:52;10.30;;;8.52;;
39788;SDS011;25478;42.626;23.320;2022-09-09T08:14:18;15.40;;;9.13;;
39788;SDS011;25478;42.626;23.320;2022-09-09T08:16:45;12.35;;;8.70;;
39788;SDS011;25478;42.626;23.320;2022-09-09T08:19:16;12.48;;;8.27;;
39788;SDS011;25478;42.626;23.320;2022-09-09T08:21:43;11.23;;;8.48;;
39788;SDS011;25478;42.626;23.320;2022-09-09T08:24:11;13.80;;;8.80;;
39788;SDS011;25478;42.626;23.320;2022-09-09T08:26:38;16.77;;;9.15;;
39788;SDS011;25478;42.626;23.320;2022-09-09T08:29:14;13.55;;;9.25;;
39788;SDS011;25478;42.626;23.320;2022-09-09T08:31:41;11.90;;;8.68;;
39788;SDS011;25478;42.626;23.320;2022-09-09T08:34:20;14.07;;;9.00;;
39788;SDS011;25478;42.626;23.320;2022-09-09T08:36:48;18.90;;;9.50;;
39788;SDS011;25478;42.626;23.320;2022-09-09T08:39:18;15.80;;;9.07;;
39788;SDS011;25478;42.626;23.320;2022-09-09T08:58:01;13.00;;;9.15;;
39788;SDS011;25478;42.626;23.320;2022-09-09T09:00:50;16.73;;;8.88;;
39788;SDS011;25478;42.626;23.320;2022-09-09T09:04:00;11.30;;;8.30;;
39788;SDS011;25478;42.626;23.320;2022-09-09T09:11:35;12.23;;;8.25;;
39788;SDS011;25478;42.626;23.320;2022-09-09T09:14:09;11.25;;;7.80;;
39788;SDS011;25478;42.626;23.320;2022-09-09T09:16:57;11.85;;;8.63;;
39788;SDS011;25478;42.626;23.320;2022-09-09T09:19:27;10.35;;;7.85;;
39788;SDS011;25478;42.626;23.320;2022-09-09T09:27:16;11.70;;;8.40;;
39788;SDS011;25478;42.626;23.320;2022-09-09T09:33:05;10.98;;;7.45;;
39788;SDS011;25478;42.626;23.320;2022-09-09T09:35:52;9.80;;;7.38;;
39788;SDS011;25478;42.626;23.320;2022-09-09T09:38:21;9.65;;;7.90;;
39788;SDS011;25478;42.626;23.320;2022-09-09T09:40:53;11.18;;;7.35;;
39788;SDS011;25478;42.626;23.320;2022-09-09T09:43:25;12.15;;;7.45;;
39788;SDS011;25478;42.626;23.320;2022-09-09T09:45:58;17.13;;;7.80;;
39788;SDS011;25478;42.626;23.320;2022-09-09T09:48:26;10.77;;;6.80;;
39788;SDS011;25478;42.626;23.320;2022-09-09T09:51:01;9.80;;;7.38;;
39788;SDS011;25478;42.626;23.320;2022-09-09T09:53:37;10.13;;;6.85;;
39788;SDS011;25478;42.626;23.320;2022-09-09T09:56:08;9.05;;;6.95;;
39788;SDS011;25478;42.626;23.320;2022-09-09T09:58:47;11.85;;;7.07;;
39788;SDS011;25478;42.626;23.320;2022-09-09T10:01:21;12.48;;;7.25;;
39788;SDS011;25478;42.626;23.320;2022-09-09T10:03:51;11.07;;;7.22;;
39788;SDS011;25478;42.626;23.320;2022-09-09T10:06:28;14.95;;;8.20;;
39788;SDS011;25478;42.626;23.320;2022-09-09T10:08:55;13.55;;;7.70;;
39788;SDS011;25478;42.626;23.320;2022-09-09T10:11:25;11.98;;;7.43;;
39788;SDS011;25478;42.626;23.320;2022-09-09T10:19:31;14.30;;;7.35;;
39788;SDS011;25478;42.626;23.320;2022-09-09T10:29:48;10.90;;;7.97;;
39788;SDS011;25478;42.626;23.320;2022-09-09T10:40:34;10.80;;;7.35;;
39788;SDS011;25478;42.626;23.320;2022-09-09T10:45:48;11.80;;;7.30;;
39788;SDS011;25478;42.626;23.320;2022-09-09T10:52:05;11.48;;;7.95;;
39788;SDS011;25478;42.626;23.320;2022-09-09T10:57:17;10.98;;;7.07;;
39788;SDS011;25478;42.626;23.320;2022-09-09T10:59:54;13.60;;;7.43;;
39788;SDS011;25478;42.626;23.320;2022-09-09T11:02:28;13.80;;;8.18;;
39788;SDS011;25478;42.626;23.320;2022-09-09T11:05:01;14.07;;;8.27;;
39788;SDS011;25478;42.626;23.320;2022-09-09T11:07:40;12.30;;;8.23;;
39788;SDS011;25478;42.626;23.320;2022-09-09T11:10:17;13.55;;;8.38;;
39788;SDS011;25478;42.626;23.320;2022-09-09T11:12:50;12.73;;;8.73;;
39788;SDS011;25478;42.626;23.320;2022-09-09T11:15:28;12.25;;;8.25;;
39788;SDS011;25478;42.626;23.320;2022-09-09T11:18:01;11.40;;;8.27;;
39788;SDS011;25478;42.626;23.320;2022-09-09T11:20:29;13.68;;;8.98;;
39788;SDS011;25478;42.626;23.320;2022-09-09T11:22:56;13.05;;;8.18;;
39788;SDS011;25478;42.626;23.320;2022-09-09T11:25:28;11.32;;;7.97;;
39788;SDS011;25478;42.626;23.320;2022-09-09T11:31:21;11.77;;;8.77;;
39788;SDS011;25478;42.626;23.320;2022-09-09T11:38:41;12.60;;;8.48;;
39788;SDS011;25478;42.626;23.320;2022-09-09T11:41:11;14.55;;;8.77;;
39788;SDS011;25478;42.626;23.320;2022-09-09T11:43:44;10.75;;;7.60;;
39788;SDS011;25478;42.626;23.320;2022-09-09T11:46:12;12.55;;;8.30;;
39788;SDS011;25478;42.626;23.320;2022-09-09T11:48:44;14.00;;;8.35;;
39788;SDS011;25478;42.626;23.320;2022-09-09T11:53:51;12.25;;;8.57;;
39788;SDS011;25478;42.626;23.320;2022-09-09T12:01:30;12.80;;;8.68;;
39788;SDS011;25478;42.626;23.320;2022-09-09T12:06:53;18.25;;;9.80;;
39788;SDS011;25478;42.626;23.320;2022-09-09T12:12:07;13.18;;;9.02;;
39788;SDS011;25478;42.626;23.320;2022-09-09T12:17:30;11.10;;;8.75;;
39788;SDS011;25478;42.626;23.320;2022-09-09T12:20:03;11.75;;;8.88;;
39788;SDS011;25478;42.626;23.320;2022-09-09T12:34:02;14.05;;;8.98;;
39788;SDS011;25478;42.626;23.320;2022-09-09T12:36:41;13.52;;;9.60;;
39788;SDS011;25478;42.626;23.320;2022-09-09T12:39:18;17.40;;;8.85;;
39788;SDS011;25478;42.626;23.320;2022-09-09T12:41:53;12.63;;;9.00;;
39788;SDS011;25478;42.626;23.320;2022-09-09T12:44:24;14.98;;;9.60;;
39788;SDS011;25478;42.626;23.320;2022-09-09T12:46:53;16.70;;;9.43;;
39788;SDS011;25478;42.626;23.320;2022-09-09T12:49:32;17.17;;;9.32;;
39788;SDS011;25478;42.626;23.320;2022-09-09T12:52:07;14.68;;;9.48;;
39788;SDS011;25478;42.626;23.320;2022-09-09T12:54:42;15.55;;;9.93;;
39788;SDS011;25478;42.626;23.320;2022-09-09T12:59:39;16.13;;;9.77;;
39788;SDS011;25478;42.626;23.320;2022-09-09T13:02:22;14.18;;;9.63;;
39788;SDS011;25478;42.626;23.320;2022-09-09T13:04:50;13.57;;;9.27;;
39788;SDS011;25478;42.626;23.320;2022-09-09T13:07:18;14.30;;;9.18;;
39788;SDS011;25478;42.626;23.320;2022-09-09T13:09:45;13.18;;;9.57;;
39788;SDS011;25478;42.626;23.320;2022-09-09T13:12:18;13.38;;;9.50;;
39788;SDS011;25478;42.626;23.320;2022-09-09T13:14:53;15.15;;;9.85;;
39788;SDS011;25478;42.626;23.320;2022-09-09T13:17:21;13.15;;;10.23;;
39788;SDS011;25478;42.626;23.320;2022-09-09T13:19:49;13.43;;;9.05;;
39788;SDS011;25478;42.626;23.320;2022-09-09T13:22:31;13.20;;;9.40;;
39788;SDS011;25478;42.626;23.320;2022-09-09T13:27:36;16.58;;;9.93;;
39788;SDS011;25478;42.626;23.320;2022-09-09T13:35:35;12.63;;;10.15;;
39788;SDS011;25478;42.626;23.320;2022-09-09T13:38:15;17.83;;;9.57;;
39788;SDS011;25478;42.626;23.320;2022-09-09T13:43:34;14.27;;;9.07;;
39788;SDS011;25478;42.626;23.320;2022-09-09T13:46:04;15.85;;;10.02;;
39788;SDS011;25478;42.626;23.320;2022-09-09T13:48:59;15.02;;;9.38;;
39788;SDS011;25478;42.626;23.320;2022-09-09T13:51:45;15.05;;;9.32;;
39788;SDS011;25478;42.626;23.320;2022-09-09T13:54:15;17.35;;;9.32;;
39788;SDS011;25478;42.626;23.320;2022-09-09T13:56:43;18.42;;;9.80;;
39788;SDS011;25478;42.626;23.320;2022-09-09T13:59:11;15.02;;;9.10;;
39788;SDS011;25478;42.626;23.320;2022-09-09T14:01:38;11.38;;;9.10;;
39788;SDS011;25478;42.626;23.320;2022-09-09T14:04:03;11.02;;;8.57;;
39788;SDS011;25478;42.626;23.320;2022-09-09T14:06:31;15.20;;;9.35;;
39788;SDS011;25478;42.626;23.320;2022-09-09T14:08:57;13.70;;;8.88;;
39788;SDS011;25478;42.626;23.320;2022-09-09T14:11:23;13.88;;;8.73;;
39788;SDS011;25478;42.626;23.320;2022-09-09T14:13:49;16.48;;;8.95;;
39788;SDS011;25478;42.626;23.320;2022-09-09T14:16:15;15.75;;;9.77;;
39788;SDS011;25478;42.626;23.320;2022-09-09T14:18:42;16.25;;;9.55;;
39788;SDS011;25478;42.626;23.320;2022-09-09T14:21:09;15.15;;;9.10;;
39788;SDS011;25478;42.626;23.320;2022-09-09T14:23:35;15.45;;;10.00;;
39788;SDS011;25478;42.626;23.320;2022-09-09T14:26:00;14.25;;;9.13;;
39788;SDS011;25478;42.626;23.320;2022-09-09T14:28:26;14.38;;;9.18;;
39788;SDS011;25478;42.626;23.320;2022-09-09T14:30:53;17.00;;;9.98;;
39788;SDS011;25478;42.626;23.320;2022-09-09T14:33:19;13.48;;;9.25;;
39788;SDS011;25478;42.626;23.320;2022-09-09T14:35:44;12.60;;;9.50;;
39788;SDS011;25478;42.626;23.320;2022-09-09T14:38:10;17.67;;;9.15;;
39788;SDS011;25478;42.626;23.320;2022-09-09T14:40:36;17.10;;;9.15;;
39788;SDS011;25478;42.626;23.320;2022-09-09T14:43:02;13.98;;;9.30;;
39788;SDS011;25478;42.626;23.320;2022-09-09T14:45:29;15.00;;;8.55;;
39788;SDS011;25478;42.626;23.320;2022-09-09T14:47:55;15.05;;;8.63;;
39788;SDS011;25478;42.626;23.320;2022-09-09T14:50:21;14.13;;;9.18;;
39788;SDS011;25478;42.626;23.320;2022-09-09T14:52:48;18.42;;;8.65;;
39788;SDS011;25478;42.626;23.320;2022-09-09T14:55:14;11.68;;;8.85;;
39788;SDS011;25478;42.626;23.320;2022-09-09T14:57:40;18.80;;;9.13;;
39788;SDS011;25478;42.626;23.320;2022-09-09T15:00:06;14.52;;;8.43;;
39788;SDS011;25478;42.626;23.320;2022-09-09T15:02:33;15.93;;;8.40;;
39788;SDS011;25478;42.626;23.320;2022-09-09T15:04:59;14.10;;;9.07;;
39788;SDS011;25478;42.626;23.320;2022-09-09T15:07:25;17.23;;;9.68;;
39788;SDS011;25478;42.626;23.320;2022-09-09T15:09:52;13.85;;;9.52;;
39788;SDS011;25478;42.626;23.320;2022-09-09T15:12:18;15.88;;;9.32;;
39788;SDS011;25478;42.626;23.320;2022-09-09T15:14:44;17.63;;;10.00;;
39788;SDS011;25478;42.626;23.320;2022-09-09T15:17:10;16.75;;;9.65;;
39788;SDS011;25478;42.626;23.320;2022-09-09T15:19:36;14.15;;;9.95;;
39788;SDS011;25478;42.626;23.320;2022-09-09T15:22:03;13.73;;;10.15;;
39788;SDS011;25478;42.626;23.320;2022-09-09T15:24:33;22.02;;;10.85;;
39788;SDS011;25478;42.626;23.320;2022-09-09T15:27:00;15.43;;;10.43;;
39788;SDS011;25478;42.626;23.320;2022-09-09T15:29:26;19.55;;;10.75;;
39788;SDS011;25478;42.626;23.320;2022-09-09T15:31:53;23.38;;;11.30;;
39788;SDS011;25478;42.626;23.320;2022-09-09T15:34:19;20.98;;;11.18;;
39788;SDS011;25478;42.626;23.320;2022-09-09T15:36:45;16.48;;;10.35;;
39788;SDS011;25478;42.626;23.320;2022-09-09T15:39:14;16.95;;;10.82;;
39788;SDS011;25478;42.626;23.320;2022-09-09T15:41:44;17.35;;;10.60;;
39788;SDS011;25478;42.626;23.320;2022-09-09T15:44:12;16.83;;;9.80;;
39788;SDS011;25478;42.626;23.320;2022-09-09T15:46:39;17.70;;;10.35;;
39788;SDS011;25478;42.626;23.320;2022-09-09T15:51:37;22.85;;;11.65;;
39788;SDS011;25478;42.626;23.320;2022-09-09T15:54:03;18.08;;;10.73;;
39788;SDS011;25478;42.626;23.320;2022-09-09T15:56:30;15.80;;;10.10;;
39788;SDS011;25478;42.626;23.320;2022-09-09T15:58:56;15.70;;;9.93;;
39788;SDS011;25478;42.626;23.320;2022-09-09T16:01:24;16.17;;;10.48;;
39788;SDS011;25478;42.626;23.320;2022-09-09T16:03:50;17.85;;;10.63;;
39788;SDS011;25478;42.626;23.320;2022-09-09T16:06:17;18.17;;;10.90;;
39788;SDS011;25478;42.626;23.320;2022-09-09T16:08:45;17.13;;;11.00;;
39788;SDS011;25478;42.626;23.320;2022-09-09T16:11:13;15.35;;;10.57;;
39788;SDS011;25478;42.626;23.320;2022-09-09T16:13:41;19.95;;;10.80;;
39788;SDS011;25478;42.626;23.320;2022-09-09T16:16:09;14.95;;;11.27;;
39788;SDS011;25478;42.626;23.320;2022-09-09T16:18:37;18.63;;;10.82;;
39788;SDS011;25478;42.626;23.320;2022-09-09T16:21:08;22.25;;;11.85;;
39788;SDS011;25478;42.626;23.320;2022-09-09T16:23:40;18.13;;;11.73;;
39788;SDS011;25478;42.626;23.320;2022-09-09T16:26:06;14.55;;;11.57;;
39788;SDS011;25478;42.626;23.320;2022-09-09T16:28:31;22.58;;;13.00;;
39788;SDS011;25478;42.626;23.320;2022-09-09T16:30:57;17.08;;;13.10;;
39788;SDS011;25478;42.626;23.320;2022-09-09T16:33:26;16.55;;;10.65;;
39788;SDS011;25478;42.626;23.320;2022-09-09T16:35:51;14.45;;;10.77;;
39788;SDS011;25478;42.626;23.320;2022-09-09T16:38:17;20.15;;;10.98;;
39788;SDS011;25478;42.626;23.320;2022-09-09T16:40:42;13.68;;;10.95;;
39788;SDS011;25478;42.626;23.320;2022-09-09T16:43:08;14.60;;;11.02;;
39788;SDS011;25478;42.626;23.320;2022-09-09T16:45:41;15.25;;;10.13;;
39788;SDS011;25478;42.626;23.320;2022-09-09T16:48:07;14.82;;;10.02;;
39788;SDS011;25478;42.626;23.320;2022-09-09T16:50:33;13.68;;;9.45;;
39788;SDS011;25478;42.626;23.320;2022-09-09T16:52:59;14.48;;;9.57;;
39788;SDS011;25478;42.626;23.320;2022-09-09T16:55:25;13.57;;;9.68;;
39788;SDS011;25478;42.626;23.320;2022-09-09T16:57:51;14.77;;;9.82;;
39788;SDS011;25478;42.626;23.320;2022-09-09T17:00:20;15.50;;;10.35;;
39788;SDS011;25478;42.626;23.320;2022-09-09T17:02:46;14.07;;;10.00;;
39788;SDS011;25478;42.626;23.320;2022-09-09T17:05:12;19.00;;;11.15;;